sensor_id;sensor_type;location;lat;lon;timestamp;P1;durP1;ratioP1;P2;durP2;ratioP2
56429;SDS011;42332;52.136;20.666;2023-07-13T00:02:07;14.05;;;7.57;;
56429;SDS011;42332;52.136;20.666;2023-07-13T00:04:32;15.88;;;8.48;;
56429;SDS011;42332;52.136;20.666;2023-07-13T00:06:58;16.58;;;8.02;;
56429;SDS011;42332;52.136;20.666;2023-07-13T00:09:23;19.45;;;8.68;;
56429;SDS011;42332;52.136;20.666;2023-07-13T00:11:53;14.73;;;8.48;;
56429;SDS011;42332;52.136;20.666;2023-07-13T00:14:19;13.25;;;7.40;;
56429;SDS011;42332;52.136;20.666;2023-07-13T00:16:45;15.30;;;7.65;;
56429;SDS011;42332;52.136;20.666;2023-07-13T00:19:11;14.07;;;7.35;;
56429;SDS011;42332;52.136;20.666;2023-07-13T00:21:37;14.93;;;7.53;;
56429;SDS011;42332;52.136;20.666;2023-07-13T00:24:03;17.40;;;8.35;;
56429;SDS011;42332;52.136;20.666;2023-07-13T00:26:30;15.57;;;7.28;;
56429;SDS011;42332;52.136;20.666;2023-07-13T00:28:57;14.30;;;7.55;;
56429;SDS011;42332;52.136;20.666;2023-07-13T00:31:22;17.13;;;8.07;;
56429;SDS011;42332;52.136;20.666;2023-07-13T00:33:48;16.17;;;7.22;;
56429;SDS011;42332;52.136;20.666;2023-07-13T00:36:14;15.55;;;7.60;;
56429;SDS011;42332;52.136;20.666;2023-07-13T00:38:39;14.68;;;7.70;;
56429;SDS011;42332;52.136;20.666;2023-07-13T00:41:05;15.43;;;6.97;;
56429;SDS011;42332;52.136;20.666;2023-07-13T00:43:30;13.73;;;6.75;;
56429;SDS011;42332;52.136;20.666;2023-07-13T00:48:23;13.03;;;6.97;;
56429;SDS011;42332;52.136;20.666;2023-07-13T00:50:52;12.25;;;6.75;;
56429;SDS011;42332;52.136;20.666;2023-07-13T00:53:19;12.45;;;6.53;;
56429;SDS011;42332;52.136;20.666;2023-07-13T00:55:44;17.38;;;7.53;;
56429;SDS011;42332;52.136;20.666;2023-07-13T00:58:10;12.43;;;6.82;;
56429;SDS011;42332;52.136;20.666;2023-07-13T01:00:36;11.25;;;6.65;;
56429;SDS011;42332;52.136;20.666;2023-07-13T01:03:02;13.25;;;7.07;;
56429;SDS011;42332;52.136;20.666;2023-07-13T01:05:29;12.77;;;7.10;;
56429;SDS011;42332;52.136;20.666;2023-07-13T01:07:57;14.10;;;6.93;;
56429;SDS011;42332;52.136;20.666;2023-07-13T01:10:23;13.05;;;7.10;;
56429;SDS011;42332;52.136;20.666;2023-07-13T01:12:49;13.80;;;6.75;;
56429;SDS011;42332;52.136;20.666;2023-07-13T01:18:05;18.67;;;7.25;;
56429;SDS011;42332;52.136;20.666;2023-07-13T01:20:33;13.95;;;7.07;;
56429;SDS011;42332;52.136;20.666;2023-07-13T01:23:05;15.13;;;6.85;;
56429;SDS011;42332;52.136;20.666;2023-07-13T01:25:31;12.43;;;6.95;;
56429;SDS011;42332;52.136;20.666;2023-07-13T01:27:56;17.50;;;7.10;;
56429;SDS011;42332;52.136;20.666;2023-07-13T01:30:22;12.73;;;6.30;;
56429;SDS011;42332;52.136;20.666;2023-07-13T01:32:47;15.75;;;7.60;;
56429;SDS011;42332;52.136;20.666;2023-07-13T01:35:12;15.05;;;6.95;;
56429;SDS011;42332;52.136;20.666;2023-07-13T01:37:38;12.68;;;7.13;;
56429;SDS011;42332;52.136;20.666;2023-07-13T01:40:03;13.20;;;6.93;;
56429;SDS011;42332;52.136;20.666;2023-07-13T01:42:30;15.18;;;8.15;;
56429;SDS011;42332;52.136;20.666;2023-07-13T01:44:55;18.33;;;7.47;;
56429;SDS011;42332;52.136;20.666;2023-07-13T01:47:22;13.70;;;7.25;;
56429;SDS011;42332;52.136;20.666;2023-07-13T01:49:48;12.85;;;7.38;;
56429;SDS011;42332;52.136;20.666;2023-07-13T01:52:13;13.45;;;7.03;;
56429;SDS011;42332;52.136;20.666;2023-07-13T01:54:38;14.95;;;7.32;;
56429;SDS011;42332;52.136;20.666;2023-07-13T01:57:04;13.80;;;7.75;;
56429;SDS011;42332;52.136;20.666;2023-07-13T01:59:29;14.68;;;7.03;;
56429;SDS011;42332;52.136;20.666;2023-07-13T02:01:55;15.82;;;7.15;;
56429;SDS011;42332;52.136;20.666;2023-07-13T02:04:20;16.05;;;7.80;;
56429;SDS011;42332;52.136;20.666;2023-07-13T02:06:45;15.38;;;7.38;;
56429;SDS011;42332;52.136;20.666;2023-07-13T02:09:11;13.52;;;7.63;;
56429;SDS011;42332;52.136;20.666;2023-07-13T02:11:36;12.85;;;7.72;;
56429;SDS011;42332;52.136;20.666;2023-07-13T02:14:02;12.25;;;6.95;;
56429;SDS011;42332;52.136;20.666;2023-07-13T02:16:28;15.35;;;7.10;;
56429;SDS011;42332;52.136;20.666;2023-07-13T02:18:54;16.08;;;7.38;;
56429;SDS011;42332;52.136;20.666;2023-07-13T02:21:20;19.45;;;8.07;;
56429;SDS011;42332;52.136;20.666;2023-07-13T02:23:46;13.38;;;7.45;;
56429;SDS011;42332;52.136;20.666;2023-07-13T02:26:11;12.55;;;7.60;;
56429;SDS011;42332;52.136;20.666;2023-07-13T02:28:36;12.68;;;6.93;;
56429;SDS011;42332;52.136;20.666;2023-07-13T02:31:09;17.08;;;7.72;;
56429;SDS011;42332;52.136;20.666;2023-07-13T02:33:35;16.38;;;7.15;;
56429;SDS011;42332;52.136;20.666;2023-07-13T02:36:01;17.00;;;7.32;;
56429;SDS011;42332;52.136;20.666;2023-07-13T02:38:26;14.80;;;7.88;;
56429;SDS011;42332;52.136;20.666;2023-07-13T02:40:52;18.17;;;7.97;;
56429;SDS011;42332;52.136;20.666;2023-07-13T02:43:18;13.45;;;7.43;;
56429;SDS011;42332;52.136;20.666;2023-07-13T02:45:43;14.38;;;7.68;;
56429;SDS011;42332;52.136;20.666;2023-07-13T02:48:10;16.63;;;8.32;;
56429;SDS011;42332;52.136;20.666;2023-07-13T02:50:35;15.70;;;7.80;;
56429;SDS011;42332;52.136;20.666;2023-07-13T02:53:00;13.93;;;7.75;;
56429;SDS011;42332;52.136;20.666;2023-07-13T02:55:26;14.15;;;7.85;;
56429;SDS011;42332;52.136;20.666;2023-07-13T02:57:51;14.48;;;7.88;;
56429;SDS011;42332;52.136;20.666;2023-07-13T03:00:17;13.60;;;7.85;;
56429;SDS011;42332;52.136;20.666;2023-07-13T03:02:42;14.70;;;7.85;;
56429;SDS011;42332;52.136;20.666;2023-07-13T03:05:08;15.60;;;7.82;;
56429;SDS011;42332;52.136;20.666;2023-07-13T03:07:35;13.00;;;7.28;;
56429;SDS011;42332;52.136;20.666;2023-07-13T03:10:01;13.82;;;6.90;;
56429;SDS011;42332;52.136;20.666;2023-07-13T03:12:27;16.17;;;8.00;;
56429;SDS011;42332;52.136;20.666;2023-07-13T03:14:52;14.88;;;7.03;;
56429;SDS011;42332;52.136;20.666;2023-07-13T03:17:17;14.80;;;7.10;;
56429;SDS011;42332;52.136;20.666;2023-07-13T03:19:43;17.35;;;7.97;;
56429;SDS011;42332;52.136;20.666;2023-07-13T03:22:08;13.57;;;7.03;;
56429;SDS011;42332;52.136;20.666;2023-07-13T03:24:34;16.50;;;7.70;;
56429;SDS011;42332;52.136;20.666;2023-07-13T03:27:03;12.73;;;7.28;;
56429;SDS011;42332;52.136;20.666;2023-07-13T03:29:29;14.18;;;7.32;;
56429;SDS011;42332;52.136;20.666;2023-07-13T03:31:55;12.65;;;7.45;;
56429;SDS011;42332;52.136;20.666;2023-07-13T03:34:20;14.25;;;8.00;;
56429;SDS011;42332;52.136;20.666;2023-07-13T03:36:45;13.93;;;7.57;;
56429;SDS011;42332;52.136;20.666;2023-07-13T03:39:11;17.30;;;7.43;;
56429;SDS011;42332;52.136;20.666;2023-07-13T03:41:36;12.55;;;7.43;;
56429;SDS011;42332;52.136;20.666;2023-07-13T03:44:01;12.73;;;7.53;;
56429;SDS011;42332;52.136;20.666;2023-07-13T03:46:27;14.55;;;7.60;;
56429;SDS011;42332;52.136;20.666;2023-07-13T03:48:53;15.25;;;8.07;;
56429;SDS011;42332;52.136;20.666;2023-07-13T03:51:18;16.25;;;7.57;;
56429;SDS011;42332;52.136;20.666;2023-07-13T03:53:44;13.70;;;7.63;;
56429;SDS011;42332;52.136;20.666;2023-07-13T03:56:11;14.15;;;7.55;;
56429;SDS011;42332;52.136;20.666;2023-07-13T03:58:37;17.50;;;8.20;;
56429;SDS011;42332;52.136;20.666;2023-07-13T04:01:04;16.02;;;7.35;;
56429;SDS011;42332;52.136;20.666;2023-07-13T04:03:32;12.98;;;7.60;;
56429;SDS011;42332;52.136;20.666;2023-07-13T04:05:58;17.15;;;8.50;;
56429;SDS011;42332;52.136;20.666;2023-07-13T04:08:28;14.70;;;8.13;;
56429;SDS011;42332;52.136;20.666;2023-07-13T04:10:55;17.80;;;8.75;;
56429;SDS011;42332;52.136;20.666;2023-07-13T04:13:20;12.95;;;7.28;;
56429;SDS011;42332;52.136;20.666;2023-07-13T04:15:46;20.52;;;8.02;;
56429;SDS011;42332;52.136;20.666;2023-07-13T04:18:11;12.60;;;7.68;;
56429;SDS011;42332;52.136;20.666;2023-07-13T04:20:37;14.48;;;8.27;;
56429;SDS011;42332;52.136;20.666;2023-07-13T04:23:02;13.82;;;7.82;;
56429;SDS011;42332;52.136;20.666;2023-07-13T04:25:27;17.73;;;8.13;;
56429;SDS011;42332;52.136;20.666;2023-07-13T04:27:53;14.13;;;7.88;;
56429;SDS011;42332;52.136;20.666;2023-07-13T04:30:19;17.80;;;8.18;;
56429;SDS011;42332;52.136;20.666;2023-07-13T04:32:45;13.27;;;7.28;;
56429;SDS011;42332;52.136;20.666;2023-07-13T04:35:10;15.50;;;7.47;;
56429;SDS011;42332;52.136;20.666;2023-07-13T04:37:36;15.20;;;7.57;;
56429;SDS011;42332;52.136;20.666;2023-07-13T04:40:01;11.73;;;7.38;;
56429;SDS011;42332;52.136;20.666;2023-07-13T04:42:28;16.20;;;6.90;;
56429;SDS011;42332;52.136;20.666;2023-07-13T04:44:53;12.40;;;7.32;;
56429;SDS011;42332;52.136;20.666;2023-07-13T04:47:19;14.73;;;7.85;;
56429;SDS011;42332;52.136;20.666;2023-07-13T04:49:44;14.00;;;7.70;;
56429;SDS011;42332;52.136;20.666;2023-07-13T04:52:10;12.27;;;7.65;;
56429;SDS011;42332;52.136;20.666;2023-07-13T04:54:35;12.15;;;7.43;;
56429;SDS011;42332;52.136;20.666;2023-07-13T04:57:02;12.13;;;7.28;;
56429;SDS011;42332;52.136;20.666;2023-07-13T04:59:28;12.95;;;7.55;;
56429;SDS011;42332;52.136;20.666;2023-07-13T05:01:53;14.77;;;7.70;;
56429;SDS011;42332;52.136;20.666;2023-07-13T05:04:18;13.45;;;7.53;;
56429;SDS011;42332;52.136;20.666;2023-07-13T05:06:44;13.80;;;6.60;;
56429;SDS011;42332;52.136;20.666;2023-07-13T05:09:09;14.75;;;6.75;;
56429;SDS011;42332;52.136;20.666;2023-07-13T05:11:35;18.52;;;7.97;;
56429;SDS011;42332;52.136;20.666;2023-07-13T05:14:00;13.98;;;7.10;;
56429;SDS011;42332;52.136;20.666;2023-07-13T05:16:26;12.65;;;7.57;;
56429;SDS011;42332;52.136;20.666;2023-07-13T05:18:51;11.55;;;7.30;;
56429;SDS011;42332;52.136;20.666;2023-07-13T05:21:17;14.13;;;7.28;;
56429;SDS011;42332;52.136;20.666;2023-07-13T05:23:42;12.10;;;6.70;;
56429;SDS011;42332;52.136;20.666;2023-07-13T05:26:07;13.00;;;6.32;;
56429;SDS011;42332;52.136;20.666;2023-07-13T05:28:33;16.52;;;7.82;;
56429;SDS011;42332;52.136;20.666;2023-07-13T05:30:58;10.77;;;6.88;;
56429;SDS011;42332;52.136;20.666;2023-07-13T05:33:24;13.65;;;7.90;;
56429;SDS011;42332;52.136;20.666;2023-07-13T05:35:50;14.93;;;7.50;;
56429;SDS011;42332;52.136;20.666;2023-07-13T05:38:15;14.52;;;7.72;;
56429;SDS011;42332;52.136;20.666;2023-07-13T05:40:44;18.35;;;7.63;;
56429;SDS011;42332;52.136;20.666;2023-07-13T05:43:09;15.07;;;7.80;;
56429;SDS011;42332;52.136;20.666;2023-07-13T05:45:35;11.13;;;6.68;;
56429;SDS011;42332;52.136;20.666;2023-07-13T05:48:00;11.40;;;6.70;;
56429;SDS011;42332;52.136;20.666;2023-07-13T05:50:26;14.93;;;7.10;;
56429;SDS011;42332;52.136;20.666;2023-07-13T05:52:52;12.35;;;7.10;;
56429;SDS011;42332;52.136;20.666;2023-07-13T05:55:17;16.65;;;7.65;;
56429;SDS011;42332;52.136;20.666;2023-07-13T05:57:43;14.35;;;8.40;;
56429;SDS011;42332;52.136;20.666;2023-07-13T06:00:08;12.50;;;6.88;;
56429;SDS011;42332;52.136;20.666;2023-07-13T06:02:35;14.32;;;7.10;;
56429;SDS011;42332;52.136;20.666;2023-07-13T06:05:00;10.18;;;6.75;;
56429;SDS011;42332;52.136;20.666;2023-07-13T06:07:25;12.75;;;7.05;;
56429;SDS011;42332;52.136;20.666;2023-07-13T06:09:51;15.95;;;7.38;;
56429;SDS011;42332;52.136;20.666;2023-07-13T06:12:16;12.13;;;6.95;;
56429;SDS011;42332;52.136;20.666;2023-07-13T06:14:41;10.82;;;6.80;;
56429;SDS011;42332;52.136;20.666;2023-07-13T06:17:07;13.60;;;7.78;;
56429;SDS011;42332;52.136;20.666;2023-07-13T06:19:32;12.55;;;7.32;;
56429;SDS011;42332;52.136;20.666;2023-07-13T06:21:58;14.98;;;7.97;;
56429;SDS011;42332;52.136;20.666;2023-07-13T06:24:23;16.90;;;7.72;;
56429;SDS011;42332;52.136;20.666;2023-07-13T06:26:49;16.23;;;8.00;;
56429;SDS011;42332;52.136;20.666;2023-07-13T06:29:14;16.95;;;9.40;;
56429;SDS011;42332;52.136;20.666;2023-07-13T06:31:40;17.15;;;8.85;;
56429;SDS011;42332;52.136;20.666;2023-07-13T06:34:05;15.93;;;9.43;;
56429;SDS011;42332;52.136;20.666;2023-07-13T06:36:30;12.90;;;8.25;;
56429;SDS011;42332;52.136;20.666;2023-07-13T06:38:56;19.42;;;7.80;;
56429;SDS011;42332;52.136;20.666;2023-07-13T06:41:21;15.73;;;8.13;;
56429;SDS011;42332;52.136;20.666;2023-07-13T06:43:47;13.88;;;7.47;;
56429;SDS011;42332;52.136;20.666;2023-07-13T06:46:12;12.45;;;7.35;;
56429;SDS011;42332;52.136;20.666;2023-07-13T06:48:38;15.30;;;7.20;;
56429;SDS011;42332;52.136;20.666;2023-07-13T06:51:03;11.68;;;7.43;;
56429;SDS011;42332;52.136;20.666;2023-07-13T06:53:28;16.30;;;8.30;;
56429;SDS011;42332;52.136;20.666;2023-07-13T06:55:54;10.25;;;6.53;;
56429;SDS011;42332;52.136;20.666;2023-07-13T06:58:19;13.45;;;7.68;;
56429;SDS011;42332;52.136;20.666;2023-07-13T07:00:45;13.18;;;6.53;;
56429;SDS011;42332;52.136;20.666;2023-07-13T07:03:11;9.98;;;6.18;;
56429;SDS011;42332;52.136;20.666;2023-07-13T07:05:36;10.32;;;6.03;;
56429;SDS011;42332;52.136;20.666;2023-07-13T07:08:02;10.32;;;6.00;;
56429;SDS011;42332;52.136;20.666;2023-07-13T07:10:28;10.07;;;6.05;;
56429;SDS011;42332;52.136;20.666;2023-07-13T07:12:55;9.38;;;5.60;;
56429;SDS011;42332;52.136;20.666;2023-07-13T07:15:20;10.27;;;6.32;;
56429;SDS011;42332;52.136;20.666;2023-07-13T07:17:45;9.10;;;5.47;;
56429;SDS011;42332;52.136;20.666;2023-07-13T07:20:11;16.55;;;5.85;;
56429;SDS011;42332;52.136;20.666;2023-07-13T07:22:37;11.82;;;5.85;;
56429;SDS011;42332;52.136;20.666;2023-07-13T07:25:02;10.32;;;5.95;;
56429;SDS011;42332;52.136;20.666;2023-07-13T07:27:28;11.30;;;5.25;;
56429;SDS011;42332;52.136;20.666;2023-07-13T07:29:53;11.30;;;5.93;;
56429;SDS011;42332;52.136;20.666;2023-07-13T07:32:19;13.30;;;5.97;;
56429;SDS011;42332;52.136;20.666;2023-07-13T07:34:44;11.32;;;5.78;;
56429;SDS011;42332;52.136;20.666;2023-07-13T07:37:10;10.90;;;6.20;;
56429;SDS011;42332;52.136;20.666;2023-07-13T07:39:37;9.02;;;5.15;;
56429;SDS011;42332;52.136;20.666;2023-07-13T07:42:03;9.50;;;5.43;;
56429;SDS011;42332;52.136;20.666;2023-07-13T07:44:28;10.38;;;6.15;;
56429;SDS011;42332;52.136;20.666;2023-07-13T07:46:53;9.25;;;5.53;;
56429;SDS011;42332;52.136;20.666;2023-07-13T07:49:19;10.25;;;5.15;;
56429;SDS011;42332;52.136;20.666;2023-07-13T07:51:44;14.13;;;5.82;;
56429;SDS011;42332;52.136;20.666;2023-07-13T07:54:10;10.50;;;5.70;;
56429;SDS011;42332;52.136;20.666;2023-07-13T07:56:35;8.73;;;5.60;;
56429;SDS011;42332;52.136;20.666;2023-07-13T07:59:00;11.65;;;6.32;;
56429;SDS011;42332;52.136;20.666;2023-07-13T08:01:26;12.45;;;5.57;;
56429;SDS011;42332;52.136;20.666;2023-07-13T08:03:51;11.00;;;6.03;;
56429;SDS011;42332;52.136;20.666;2023-07-13T08:06:17;11.65;;;5.82;;
56429;SDS011;42332;52.136;20.666;2023-07-13T08:08:44;10.20;;;5.72;;
56429;SDS011;42332;52.136;20.666;2023-07-13T08:11:10;10.25;;;5.55;;
56429;SDS011;42332;52.136;20.666;2023-07-13T08:13:36;10.10;;;6.20;;
56429;SDS011;42332;52.136;20.666;2023-07-13T08:16:03;9.02;;;5.72;;
56429;SDS011;42332;52.136;20.666;2023-07-13T08:18:29;12.02;;;6.57;;
56429;SDS011;42332;52.136;20.666;2023-07-13T08:20:55;8.68;;;5.60;;
56429;SDS011;42332;52.136;20.666;2023-07-13T08:23:22;11.30;;;6.07;;
56429;SDS011;42332;52.136;20.666;2023-07-13T08:25:51;11.60;;;5.82;;
56429;SDS011;42332;52.136;20.666;2023-07-13T08:28:17;9.50;;;5.25;;
56429;SDS011;42332;52.136;20.666;2023-07-13T08:30:42;10.02;;;6.07;;
56429;SDS011;42332;52.136;20.666;2023-07-13T08:33:08;11.18;;;5.88;;
56429;SDS011;42332;52.136;20.666;2023-07-13T08:35:33;9.57;;;5.57;;
56429;SDS011;42332;52.136;20.666;2023-07-13T08:37:58;13.18;;;6.13;;
56429;SDS011;42332;52.136;20.666;2023-07-13T08:40:25;13.60;;;6.03;;
56429;SDS011;42332;52.136;20.666;2023-07-13T08:42:58;10.77;;;6.45;;
56429;SDS011;42332;52.136;20.666;2023-07-13T08:45:29;12.40;;;5.88;;
56429;SDS011;42332;52.136;20.666;2023-07-13T08:48:22;9.25;;;5.70;;
56429;SDS011;42332;52.136;20.666;2023-07-13T08:51:04;10.35;;;6.10;;
56429;SDS011;42332;52.136;20.666;2023-07-13T08:53:46;9.85;;;5.50;;
56429;SDS011;42332;52.136;20.666;2023-07-13T08:56:20;15.80;;;6.50;;
56429;SDS011;42332;52.136;20.666;2023-07-13T08:58:48;13.18;;;5.95;;
56429;SDS011;42332;52.136;20.666;2023-07-13T09:01:22;15.13;;;6.82;;
56429;SDS011;42332;52.136;20.666;2023-07-13T09:12:46;13.27;;;5.82;;
56429;SDS011;42332;52.136;20.666;2023-07-13T09:15:36;9.27;;;5.80;;
56429;SDS011;42332;52.136;20.666;2023-07-13T09:18:07;8.95;;;5.40;;
56429;SDS011;42332;52.136;20.666;2023-07-13T09:20:41;10.75;;;5.60;;
56429;SDS011;42332;52.136;20.666;2023-07-13T09:23:12;9.82;;;5.75;;
56429;SDS011;42332;52.136;20.666;2023-07-13T09:25:40;13.85;;;5.05;;
56429;SDS011;42332;52.136;20.666;2023-07-13T09:33:05;12.60;;;5.53;;
56429;SDS011;42332;52.136;20.666;2023-07-13T09:35:30;9.27;;;5.88;;
56429;SDS011;42332;52.136;20.666;2023-07-13T09:38:01;9.88;;;5.65;;
56429;SDS011;42332;52.136;20.666;2023-07-13T09:43:55;10.90;;;6.13;;
56429;SDS011;42332;52.136;20.666;2023-07-13T09:46:25;9.15;;;5.93;;
56429;SDS011;42332;52.136;20.666;2023-07-13T09:48:51;9.95;;;6.03;;
56429;SDS011;42332;52.136;20.666;2023-07-13T09:51:16;12.18;;;5.72;;
56429;SDS011;42332;52.136;20.666;2023-07-13T09:53:42;10.90;;;6.07;;
56429;SDS011;42332;52.136;20.666;2023-07-13T09:56:18;12.35;;;5.45;;
56429;SDS011;42332;52.136;20.666;2023-07-13T09:58:48;11.05;;;5.75;;
56429;SDS011;42332;52.136;20.666;2023-07-13T10:01:13;11.10;;;6.30;;
56429;SDS011;42332;52.136;20.666;2023-07-13T10:03:39;12.43;;;5.93;;
56429;SDS011;42332;52.136;20.666;2023-07-13T10:06:11;12.13;;;5.88;;
56429;SDS011;42332;52.136;20.666;2023-07-13T10:08:44;14.68;;;6.18;;
56429;SDS011;42332;52.136;20.666;2023-07-13T10:11:12;11.60;;;6.32;;
56429;SDS011;42332;52.136;20.666;2023-07-13T10:13:41;20.88;;;7.63;;
56429;SDS011;42332;52.136;20.666;2023-07-13T10:16:08;18.95;;;8.25;;
56429;SDS011;42332;52.136;20.666;2023-07-13T10:18:38;13.80;;;7.65;;
56429;SDS011;42332;52.136;20.666;2023-07-13T10:21:19;19.48;;;8.75;;
56429;SDS011;42332;52.136;20.666;2023-07-13T10:23:53;13.52;;;6.38;;
56429;SDS011;42332;52.136;20.666;2023-07-13T10:26:27;14.95;;;6.63;;
56429;SDS011;42332;52.136;20.666;2023-07-13T10:28:56;17.55;;;6.15;;
56429;SDS011;42332;52.136;20.666;2023-07-13T10:31:22;17.75;;;4.57;;
56429;SDS011;42332;52.136;20.666;2023-07-13T10:33:48;9.00;;;3.70;;
56429;SDS011;42332;52.136;20.666;2023-07-13T10:39:04;10.73;;;4.28;;
56429;SDS011;42332;52.136;20.666;2023-07-13T10:41:31;12.15;;;4.43;;
56429;SDS011;42332;52.136;20.666;2023-07-13T10:44:01;8.77;;;4.22;;
56429;SDS011;42332;52.136;20.666;2023-07-13T10:46:29;8.75;;;4.28;;
56429;SDS011;42332;52.136;20.666;2023-07-13T10:48:58;10.70;;;3.97;;
56429;SDS011;42332;52.136;20.666;2023-07-13T10:51:27;7.38;;;4.20;;
56429;SDS011;42332;52.136;20.666;2023-07-13T10:56:38;7.78;;;3.55;;
56429;SDS011;42332;52.136;20.666;2023-07-13T10:59:12;9.98;;;3.70;;
56429;SDS011;42332;52.136;20.666;2023-07-13T11:04:17;8.18;;;3.47;;
56429;SDS011;42332;52.136;20.666;2023-07-13T11:06:45;10.30;;;4.20;;
56429;SDS011;42332;52.136;20.666;2023-07-13T11:09:31;10.60;;;3.50;;
56429;SDS011;42332;52.136;20.666;2023-07-13T11:11:59;10.98;;;3.88;;
56429;SDS011;42332;52.136;20.666;2023-07-13T11:14:36;6.75;;;3.90;;
56429;SDS011;42332;52.136;20.666;2023-07-13T11:22:45;11.43;;;4.55;;
56429;SDS011;42332;52.136;20.666;2023-07-13T11:27:44;11.70;;;4.50;;
56429;SDS011;42332;52.136;20.666;2023-07-13T11:33:09;13.48;;;4.63;;
56429;SDS011;42332;52.136;20.666;2023-07-13T11:35:40;11.60;;;4.63;;
56429;SDS011;42332;52.136;20.666;2023-07-13T11:38:17;13.20;;;4.30;;
56429;SDS011;42332;52.136;20.666;2023-07-13T11:40:45;9.57;;;4.67;;
56429;SDS011;42332;52.136;20.666;2023-07-13T11:43:12;10.40;;;4.40;;
56429;SDS011;42332;52.136;20.666;2023-07-13T11:45:39;14.57;;;4.53;;
56429;SDS011;42332;52.136;20.666;2023-07-13T11:48:04;10.40;;;4.63;;
56429;SDS011;42332;52.136;20.666;2023-07-13T11:50:30;9.02;;;4.68;;
56429;SDS011;42332;52.136;20.666;2023-07-13T11:52:57;12.93;;;5.93;;
56429;SDS011;42332;52.136;20.666;2023-07-13T11:55:23;14.73;;;6.10;;
56429;SDS011;42332;52.136;20.666;2023-07-13T11:57:59;13.10;;;5.63;;
56429;SDS011;42332;52.136;20.666;2023-07-13T12:00:26;13.13;;;5.95;;
56429;SDS011;42332;52.136;20.666;2023-07-13T12:02:55;8.10;;;4.78;;
56429;SDS011;42332;52.136;20.666;2023-07-13T12:05:21;13.85;;;6.20;;
56429;SDS011;42332;52.136;20.666;2023-07-13T12:07:47;13.45;;;5.88;;
56429;SDS011;42332;52.136;20.666;2023-07-13T12:10:19;11.02;;;5.47;;
56429;SDS011;42332;52.136;20.666;2023-07-13T12:12:47;10.45;;;5.18;;
56429;SDS011;42332;52.136;20.666;2023-07-13T12:15:16;10.07;;;4.90;;
56429;SDS011;42332;52.136;20.666;2023-07-13T12:17:41;9.63;;;4.70;;
56429;SDS011;42332;52.136;20.666;2023-07-13T12:20:26;9.48;;;5.38;;
56429;SDS011;42332;52.136;20.666;2023-07-13T12:22:53;12.75;;;5.38;;
56429;SDS011;42332;52.136;20.666;2023-07-13T12:25:19;11.70;;;5.10;;
56429;SDS011;42332;52.136;20.666;2023-07-13T12:27:49;9.57;;;4.95;;
56429;SDS011;42332;52.136;20.666;2023-07-13T12:30:25;11.23;;;5.35;;
56429;SDS011;42332;52.136;20.666;2023-07-13T12:33:11;10.63;;;5.07;;
56429;SDS011;42332;52.136;20.666;2023-07-13T12:35:40;8.68;;;4.78;;
56429;SDS011;42332;52.136;20.666;2023-07-13T12:38:09;12.55;;;4.78;;
56429;SDS011;42332;52.136;20.666;2023-07-13T12:40:35;11.50;;;5.15;;
56429;SDS011;42332;52.136;20.666;2023-07-13T12:43:02;23.67;;;6.68;;
56429;SDS011;42332;52.136;20.666;2023-07-13T12:45:29;9.48;;;5.22;;
56429;SDS011;42332;52.136;20.666;2023-07-13T12:48:03;9.27;;;4.88;;
56429;SDS011;42332;52.136;20.666;2023-07-13T12:50:38;12.00;;;4.85;;
56429;SDS011;42332;52.136;20.666;2023-07-13T12:53:12;12.98;;;5.53;;
56429;SDS011;42332;52.136;20.666;2023-07-13T12:55:42;11.18;;;5.07;;
56429;SDS011;42332;52.136;20.666;2023-07-13T12:58:17;9.02;;;5.00;;
56429;SDS011;42332;52.136;20.666;2023-07-13T13:01:11;11.02;;;5.13;;
56429;SDS011;42332;52.136;20.666;2023-07-13T13:03:39;11.82;;;5.40;;
56429;SDS011;42332;52.136;20.666;2023-07-13T13:08:43;10.23;;;5.57;;
56429;SDS011;42332;52.136;20.666;2023-07-13T13:11:10;8.20;;;5.32;;
56429;SDS011;42332;52.136;20.666;2023-07-13T13:13:35;9.77;;;5.30;;
56429;SDS011;42332;52.136;20.666;2023-07-13T13:16:01;10.38;;;5.18;;
56429;SDS011;42332;52.136;20.666;2023-07-13T13:18:38;18.33;;;5.97;;
56429;SDS011;42332;52.136;20.666;2023-07-13T13:21:03;10.38;;;5.95;;
56429;SDS011;42332;52.136;20.666;2023-07-13T13:23:28;10.95;;;5.40;;
56429;SDS011;42332;52.136;20.666;2023-07-13T13:25:54;9.48;;;5.13;;
56429;SDS011;42332;52.136;20.666;2023-07-13T13:28:19;11.43;;;6.10;;
56429;SDS011;42332;52.136;20.666;2023-07-13T13:30:46;9.48;;;5.93;;
56429;SDS011;42332;52.136;20.666;2023-07-13T13:33:12;8.32;;;5.45;;
56429;SDS011;42332;52.136;20.666;2023-07-13T13:35:40;11.80;;;5.78;;
56429;SDS011;42332;52.136;20.666;2023-07-13T13:38:13;13.50;;;6.43;;
56429;SDS011;42332;52.136;20.666;2023-07-13T13:40:40;11.23;;;5.75;;
56429;SDS011;42332;52.136;20.666;2023-07-13T13:43:13;10.00;;;5.97;;
56429;SDS011;42332;52.136;20.666;2023-07-13T13:45:39;9.30;;;5.93;;
56429;SDS011;42332;52.136;20.666;2023-07-13T13:48:05;12.32;;;6.35;;
56429;SDS011;42332;52.136;20.666;2023-07-13T13:50:30;12.90;;;6.20;;
56429;SDS011;42332;52.136;20.666;2023-07-13T13:52:55;11.23;;;6.13;;
56429;SDS011;42332;52.136;20.666;2023-07-13T13:55:21;12.98;;;5.88;;
56429;SDS011;42332;52.136;20.666;2023-07-13T13:57:49;10.75;;;5.57;;
56429;SDS011;42332;52.136;20.666;2023-07-13T14:00:15;9.73;;;5.50;;
56429;SDS011;42332;52.136;20.666;2023-07-13T14:02:42;18.10;;;5.82;;
56429;SDS011;42332;52.136;20.666;2023-07-13T14:05:13;10.13;;;5.70;;
56429;SDS011;42332;52.136;20.666;2023-07-13T14:07:38;11.85;;;6.05;;
56429;SDS011;42332;52.136;20.666;2023-07-13T14:10:08;10.48;;;5.90;;
56429;SDS011;42332;52.136;20.666;2023-07-13T14:12:36;13.57;;;6.55;;
56429;SDS011;42332;52.136;20.666;2023-07-13T14:15:01;9.73;;;5.45;;
56429;SDS011;42332;52.136;20.666;2023-07-13T14:17:27;9.93;;;6.35;;
56429;SDS011;42332;52.136;20.666;2023-07-13T14:19:53;12.05;;;5.95;;
56429;SDS011;42332;52.136;20.666;2023-07-13T14:22:25;10.77;;;5.78;;
56429;SDS011;42332;52.136;20.666;2023-07-13T14:24:52;12.48;;;5.57;;
56429;SDS011;42332;52.136;20.666;2023-07-13T14:27:18;14.15;;;5.80;;
56429;SDS011;42332;52.136;20.666;2023-07-13T14:29:43;9.30;;;5.30;;
56429;SDS011;42332;52.136;20.666;2023-07-13T14:32:12;10.25;;;5.40;;
56429;SDS011;42332;52.136;20.666;2023-07-13T14:34:38;9.68;;;5.50;;
56429;SDS011;42332;52.136;20.666;2023-07-13T14:37:04;10.65;;;6.68;;
56429;SDS011;42332;52.136;20.666;2023-07-13T14:39:29;11.50;;;6.38;;
56429;SDS011;42332;52.136;20.666;2023-07-13T14:41:55;12.35;;;6.65;;
56429;SDS011;42332;52.136;20.666;2023-07-13T14:44:23;13.25;;;6.65;;
56429;SDS011;42332;52.136;20.666;2023-07-13T14:46:50;10.23;;;6.03;;
56429;SDS011;42332;52.136;20.666;2023-07-13T14:49:21;11.98;;;6.90;;
56429;SDS011;42332;52.136;20.666;2023-07-13T14:52:13;14.23;;;6.90;;
56429;SDS011;42332;52.136;20.666;2023-07-13T14:54:40;12.45;;;6.75;;
56429;SDS011;42332;52.136;20.666;2023-07-13T14:57:18;10.80;;;6.82;;
56429;SDS011;42332;52.136;20.666;2023-07-13T14:59:44;13.80;;;7.20;;
56429;SDS011;42332;52.136;20.666;2023-07-13T15:04:39;15.55;;;7.28;;
56429;SDS011;42332;52.136;20.666;2023-07-13T15:07:05;13.02;;;7.80;;
56429;SDS011;42332;52.136;20.666;2023-07-13T15:09:30;11.50;;;6.70;;
56429;SDS011;42332;52.136;20.666;2023-07-13T15:11:56;14.15;;;6.93;;